createdAt,value
2018-08-30T11:42:18.012Z,7.30
2018-08-30T11:44:46.421Z,6.35
2018-08-30T11:47:16.266Z,5.80
2018-08-30T11:49:44.621Z,5.92
2018-08-30T11:52:17.319Z,6.20
2018-08-30T11:54:46.669Z,5.10
2018-08-30T11:57:15.057Z,5.10
2018-08-30T11:59:43.453Z,5.53
2018-08-30T12:02:12.348Z,4.83
2018-08-30T12:04:40.981Z,4.87
2018-08-30T12:07:09.365Z,5.40
2018-08-30T12:09:37.953Z,5.90
2018-08-30T12:12:06.431Z,4.78
2018-08-30T12:14:34.910Z,5.22
2018-08-30T12:17:04.845Z,5.20
2018-08-30T12:19:33.245Z,5.77
2018-08-30T12:22:01.601Z,5.03
2018-08-30T12:24:30.061Z,4.87
2018-08-30T12:26:58.438Z,5.23
2018-08-30T12:31:20.020Z,6.05
2018-08-30T12:33:48.454Z,9.25
2018-08-30T12:36:16.953Z,8.80
2018-08-30T12:38:45.443Z,7.07
2018-08-30T12:41:13.893Z,5.70
2018-08-30T12:43:42.346Z,6.20
2018-08-30T12:46:10.786Z,6.87
2018-08-30T12:48:39.236Z,7.17
2018-08-30T12:51:08.006Z,7.53
2018-08-30T12:53:36.434Z,6.50
2018-08-30T12:56:04.929Z,7.37
2018-08-30T12:58:33.495Z,6.50
2018-08-30T13:01:02.031Z,7.13
2018-08-30T13:03:30.439Z,7.10
2018-08-30T13:05:58.992Z,8.17
2018-08-30T13:08:28.099Z,8.10
2018-08-30T13:10:56.587Z,8.37
2018-08-30T13:13:24.984Z,6.97
2018-08-30T13:15:53.625Z,8.37
2018-08-30T13:18:22.041Z,8.30
2018-08-30T13:20:50.455Z,7.93
2018-08-30T13:23:18.912Z,7.23
2018-08-30T13:25:47.263Z,8.03
2018-08-30T13:28:15.807Z,7.17
2018-08-30T13:30:44.347Z,8.33
2018-08-30T13:33:19.906Z,8.30
2018-08-30T13:35:41.177Z,8.53
2018-08-30T13:38:09.917Z,7.97
2018-08-30T13:40:38.415Z,10.60
2018-08-30T13:43:06.816Z,8.60
2018-08-30T13:45:35.406Z,8.87
2018-08-30T13:48:03.808Z,9.33
2018-08-30T13:50:32.111Z,8.60
2018-08-30T13:53:00.767Z,8.70
2018-08-30T13:55:29.113Z,7.67
2018-08-30T13:57:57.734Z,9.40
2018-08-30T14:00:26.242Z,8.63
2018-08-30T14:02:54.300Z,16.73
2018-08-30T14:05:22.719Z,12.20
2018-08-30T14:07:51.175Z,8.17
2018-08-30T14:10:19.964Z,8.17
2018-08-30T14:12:48.095Z,11.53
2018-08-30T14:15:16.929Z,9.33
2018-08-30T14:17:44.851Z,10.77
2018-08-30T14:20:13.322Z,10.93
2018-08-30T14:22:41.762Z,10.10
2018-08-30T14:25:10.277Z,9.70
2018-08-30T14:27:38.605Z,8.90
2018-08-30T14:30:07.166Z,8.40
2018-08-30T14:32:35.670Z,10.13
2018-08-30T14:35:04.191Z,9.97
2018-08-30T14:37:32.622Z,10.67
2018-08-30T14:40:01.461Z,9.87
2018-08-30T14:42:29.949Z,10.37
2018-08-30T14:44:58.386Z,8.57
2018-08-30T14:47:26.921Z,10.20
2018-08-30T14:49:55.249Z,9.13
2018-08-30T14:52:23.765Z,9.67
2018-08-30T14:54:52.193Z,10.40
2018-08-30T14:57:20.705Z,9.50
2018-08-30T14:59:49.154Z,9.03
2018-08-30T15:02:17.547Z,10.00
2018-08-30T15:04:46.001Z,9.10
2018-08-30T15:07:14.488Z,9.60
2018-08-30T15:09:42.892Z,9.70
2018-08-30T15:12:11.315Z,8.87
2018-08-30T15:14:39.736Z,10.40
2018-08-30T15:17:08.303Z,13.57
2018-08-30T15:19:36.686Z,10.33
2018-08-30T15:22:05.237Z,10.33
2018-08-30T15:24:33.938Z,9.97
2018-08-30T15:27:02.693Z,10.70
2018-08-30T15:29:31.062Z,9.07
2018-08-30T15:31:59.535Z,8.73
2018-08-30T15:34:27.829Z,10.50
2018-08-30T15:36:56.282Z,8.13
2018-08-30T15:39:24.801Z,8.93
2018-08-30T15:41:53.330Z,8.67
2018-08-30T15:44:21.773Z,8.90
2018-08-30T15:46:50.244Z,9.20
2018-08-30T15:49:18.764Z,7.97
2018-08-30T15:51:47.202Z,10.07
2018-08-30T15:54:15.687Z,10.33
2018-08-30T15:56:44.464Z,9.50
2018-08-30T15:59:12.903Z,10.17
2018-08-30T16:01:41.332Z,8.63
2018-08-30T16:04:09.783Z,9.50
2018-08-30T16:06:38.258Z,10.03
2018-08-30T16:09:09.072Z,9.80
2018-08-30T16:11:37.495Z,8.60
2018-08-30T16:14:05.937Z,9.63
2018-08-30T16:16:34.921Z,9.20
2018-08-30T16:19:03.456Z,10.87
2018-08-30T16:21:31.869Z,10.53
2018-08-30T16:24:00.311Z,11.30
2018-08-30T16:26:28.719Z,13.20
2018-08-30T16:28:57.181Z,9.53
2018-08-30T16:31:25.655Z,8.50
2018-08-30T16:33:54.065Z,10.07
2018-08-30T16:36:22.469Z,10.50
2018-08-30T16:38:50.893Z,9.77
2018-08-30T16:41:19.402Z,9.47
2018-08-30T16:43:47.760Z,11.57
2018-08-30T16:46:16.153Z,8.90
2018-08-30T16:48:44.656Z,11.00
2018-08-30T16:51:13.066Z,9.67
2018-08-30T16:53:41.461Z,8.40
2018-08-30T16:56:09.939Z,10.07
2018-08-30T16:58:38.396Z,11.60
2018-08-30T17:01:06.793Z,9.97
2018-08-30T17:03:35.201Z,10.10
2018-08-30T17:06:03.659Z,9.30
2018-08-30T17:08:32.289Z,10.10
2018-08-30T17:11:00.653Z,8.90
2018-08-30T17:13:29.054Z,10.00
2018-08-30T17:15:57.469Z,8.93
2018-08-30T17:18:25.894Z,8.03
2018-08-30T17:20:55.674Z,8.20
2018-08-30T17:23:24.084Z,8.13
2018-08-30T17:25:52.541Z,7.77
2018-08-30T17:28:20.984Z,8.23
2018-08-30T17:30:49.811Z,11.70
2018-08-30T17:33:18.253Z,10.30
2018-08-30T17:35:46.664Z,10.33
2018-08-30T17:38:15.112Z,9.50
2018-08-30T17:40:43.496Z,9.73
2018-08-30T17:43:11.922Z,9.60
2018-08-30T17:45:40.365Z,8.97
2018-08-30T17:48:08.797Z,8.23
2018-08-30T17:50:37.350Z,9.40
2018-08-30T17:53:05.688Z,11.00
2018-08-30T17:55:34.167Z,9.87
2018-08-30T17:58:02.664Z,9.97
2018-08-30T18:00:31.054Z,9.50
2018-08-30T18:02:59.481Z,10.73
2018-08-30T18:05:27.914Z,9.67
2018-08-30T18:07:56.381Z,11.13
2018-08-30T18:10:24.787Z,10.20
2018-08-30T18:12:53.230Z,10.13
2018-08-30T18:15:21.673Z,10.13
2018-08-30T18:17:50.114Z,11.30
2018-08-30T18:20:18.504Z,9.90
2018-08-30T18:22:47.197Z,10.00
2018-08-30T18:25:15.745Z,10.20
2018-08-30T18:27:44.155Z,11.90
2018-08-30T18:30:12.721Z,9.80
2018-08-30T18:32:41.126Z,9.73
2018-08-30T18:35:10.330Z,10.03
2018-08-30T18:37:39.269Z,10.93
2018-08-30T18:40:08.596Z,11.77
2018-08-30T18:42:36.993Z,9.70
2018-08-30T18:45:05.530Z,10.83
2018-08-30T18:47:33.928Z,10.63
2018-08-30T18:50:02.454Z,10.67
2018-08-30T18:52:31.138Z,11.40
2018-08-30T18:54:59.578Z,11.53
2018-08-30T18:57:27.992Z,9.20
2018-08-30T18:59:56.457Z,12.57
2018-08-30T19:02:24.890Z,10.70
2018-08-30T19:04:53.349Z,9.97
2018-08-30T19:07:21.758Z,11.23
2018-08-30T19:09:50.277Z,11.27
2018-08-30T19:12:18.717Z,12.20
2018-08-30T19:14:47.186Z,10.57
2018-08-30T19:17:20.969Z,12.57
2018-08-30T19:19:49.380Z,10.87
2018-08-30T19:22:17.824Z,10.33
2018-08-30T19:24:51.734Z,12.83
2018-08-30T19:27:20.198Z,10.90
2018-08-30T19:29:54.038Z,11.63
2018-08-30T19:32:23.029Z,11.03
2018-08-30T19:34:51.552Z,12.20
2018-08-30T19:37:20.002Z,11.53
2018-08-30T19:39:48.455Z,12.37
2018-08-30T19:42:17.205Z,11.30
2018-08-30T19:44:46.018Z,11.93
2018-08-30T19:47:14.441Z,10.93
2018-08-30T19:49:43.218Z,9.80
2018-08-30T19:52:11.662Z,10.97
2018-08-30T19:54:40.371Z,12.40
2018-08-30T19:57:08.867Z,13.23
2018-08-30T19:59:37.382Z,12.37
2018-08-30T20:02:05.845Z,12.73
2018-08-30T20:04:34.275Z,12.03
2018-08-30T20:07:02.734Z,12.40
2018-08-30T20:09:31.734Z,13.60
2018-08-30T20:12:00.198Z,12.60
2018-08-30T20:14:28.602Z,11.27
2018-08-30T20:16:57.029Z,11.63
2018-08-30T20:19:25.417Z,10.50
2018-08-30T20:21:53.817Z,12.10
2018-08-30T20:24:22.267Z,12.13
2018-08-30T20:26:50.682Z,13.03
2018-08-30T20:29:19.142Z,12.30
2018-08-30T20:31:47.538Z,12.30
2018-08-30T20:34:15.973Z,10.90
2018-08-30T20:36:44.398Z,11.03
2018-08-30T20:39:12.866Z,11.27
2018-08-30T20:41:41.248Z,12.03
2018-08-30T20:44:09.677Z,14.70
2018-08-30T20:46:38.138Z,13.93
2018-08-30T20:49:06.634Z,12.57
2018-08-30T20:51:35.056Z,13.73
2018-08-30T20:54:03.507Z,11.00
2018-08-30T20:56:31.977Z,11.73
2018-08-30T20:59:00.413Z,10.87
2018-08-30T21:01:28.841Z,11.63
2018-08-30T21:03:57.268Z,12.03
2018-08-30T21:06:25.713Z,10.23
2018-08-30T21:08:54.165Z,9.80
2018-08-30T21:11:22.738Z,12.27
2018-08-30T21:13:51.138Z,10.37
2018-08-30T21:16:19.575Z,10.93
2018-08-30T21:18:48.021Z,11.17
2018-08-30T21:21:16.460Z,12.40
2018-08-30T21:23:44.872Z,11.27
2018-08-30T21:26:13.314Z,11.13
2018-08-30T21:28:41.783Z,11.57
2018-08-30T21:31:10.214Z,11.13
2018-08-30T21:33:38.613Z,9.57
2018-08-30T21:36:07.096Z,9.97
2018-08-30T21:38:35.512Z,12.23
2018-08-30T21:41:03.954Z,9.80
2018-08-30T21:43:32.375Z,11.47
2018-08-30T21:46:00.869Z,11.13
2018-08-30T21:48:29.278Z,11.67
2018-08-30T21:50:57.715Z,10.90
2018-08-30T21:53:26.105Z,16.07
2018-08-30T21:55:54.601Z,12.73
2018-08-30T21:58:22.996Z,11.50
2018-08-30T22:00:51.801Z,10.37
2018-08-30T22:03:20.428Z,13.73
2018-08-30T22:05:48.830Z,11.40
2018-08-30T22:08:17.333Z,11.80
2018-08-30T22:10:45.769Z,10.60
2018-08-30T22:13:14.278Z,10.97
2018-08-30T22:15:42.733Z,11.20
2018-08-30T22:18:12.216Z,11.30
2018-08-30T22:20:40.605Z,12.60
2018-08-30T22:23:09.032Z,13.37
2018-08-30T22:25:37.503Z,10.87
2018-08-30T22:28:06.285Z,14.17
2018-08-30T22:30:34.734Z,11.67
2018-08-30T22:33:03.149Z,11.47
2018-08-30T22:35:31.621Z,12.30
2018-08-30T22:38:00.057Z,11.33
2018-08-30T22:40:28.446Z,12.97
2018-08-30T22:42:56.884Z,13.20
2018-08-30T22:45:25.301Z,12.43
2018-08-30T22:47:53.748Z,11.27
2018-08-30T22:50:22.157Z,10.67
2018-08-30T22:52:50.562Z,11.93
2018-08-30T22:55:19.013Z,13.17
2018-08-30T22:57:47.496Z,12.37
2018-08-30T23:00:15.870Z,10.33
2018-08-30T23:02:44.275Z,11.33
2018-08-30T23:05:12.747Z,10.90
2018-08-30T23:07:41.165Z,11.27
2018-08-30T23:10:09.606Z,13.13
2018-08-30T23:12:37.997Z,14.13
2018-08-30T23:15:06.725Z,12.23
2018-08-30T23:17:35.114Z,12.63
2018-08-30T23:20:03.872Z,11.73
2018-08-30T23:22:32.287Z,13.57
2018-08-30T23:25:00.738Z,13.13
2018-08-30T23:27:29.135Z,12.00
2018-08-30T23:29:57.617Z,12.73
2018-08-30T23:32:26.019Z,11.70
2018-08-30T23:34:54.458Z,12.57
2018-08-30T23:37:22.834Z,12.60
2018-08-30T23:39:51.315Z,11.37
2018-08-30T23:42:19.693Z,12.47
2018-08-30T23:44:48.078Z,12.53
2018-08-30T23:47:16.518Z,9.90
2018-08-30T23:49:44.905Z,11.60
2018-08-30T23:52:13.332Z,10.90
2018-08-30T23:54:41.793Z,11.57
2018-08-30T23:57:10.292Z,11.53
2018-08-30T23:59:50.057Z,11.40
